Time;durP1;ratioP1;P1;durP2;ratioP2;P2;SDS_P1;SDS_P2;PMS_P1;PMS_P2;Temp;Humidity;BMP_temperature;BMP_pressure;BME280_temperature;BME280_humidity;BME280_pressure;Samples;Min_cycle;Max_cycle;Signal;HPM_P1;HPM_P2
2021/09/10 00:00:11;;;;;;;0.50;0.30;;;;;;;19.96;100.00;99947.44;5031859;28;20447;-52
2021/09/10 00:02:38;;;;;;;0.90;0.90;;;;;;;19.87;100.00;99950.78;5031543;28;20467;-52
2021/09/10 00:05:07;;;;;;;0.50;0.30;;;;;;;19.97;100.00;99952.72;5032154;28;20865;-52
2021/09/10 00:07:35;;;;;;;0.60;0.53;;;;;;;19.94;100.00;99949.41;5031817;28;20502;-52
2021/09/10 00:10:04;;;;;;;0.50;0.30;;;;;;;19.84;100.00;99946.50;5031878;28;20455;-52
2021/09/10 00:12:31;;;;;;;0.50;0.50;;;;;;;19.91;100.00;99957.72;5031686;28;20475;-52
2021/09/10 00:14:58;;;;;;;0.40;0.30;;;;;;;19.72;100.00;99956.31;5031639;28;20518;-53
2021/09/10 00:17:25;;;;;;;0.50;0.50;;;;;;;19.83;100.00;99961.81;5031934;28;20490;-52
2021/09/10 00:19:51;;;;;;;2.03;0.93;;;;;;;19.88;100.00;99952.56;5031623;28;20479;-52
2021/09/10 00:22:18;;;;;;;4.93;0.63;;;;;;;19.91;100.00;99953.19;5006566;28;20471;-52
2021/09/10 00:24:45;;;;;;;0.40;0.30;;;;;;;19.94;100.00;99957.50;5014295;28;21007;-52
2021/09/10 00:27:13;;;;;;;0.50;0.50;;;;;;;19.83;100.00;99961.81;5031724;28;20451;-53
2021/09/10 00:29:41;;;;;;;1.03;0.60;;;;;;;19.97;100.00;99954.56;5031569;28;20952;-52
2021/09/10 00:32:08;;;;;;;0.40;0.30;;;;;;;19.95;100.00;99948.41;5031494;28;20478;-52
2021/09/10 00:34:35;;;;;;;0.60;0.60;;;;;;;19.73;100.00;99944.56;5031631;28;20447;-52
2021/09/10 00:37:02;;;;;;;0.60;0.50;;;;;;;19.81;100.00;99950.28;5031798;28;20517;-52
2021/09/10 00:39:29;;;;;;;0.40;0.30;;;;;;;19.90;100.00;99951.47;5031787;28;20479;-52
2021/09/10 00:41:56;;;;;;;0.40;0.30;;;;;;;19.84;100.00;99954.59;5031546;28;20451;-52
2021/09/10 00:44:23;;;;;;;0.50;0.47;;;;;;;19.78;100.00;99952.34;5031622;28;20452;-52
2021/09/10 00:46:50;;;;;;;0.50;0.40;;;;;;;19.77;100.00;99956.03;5031499;28;20474;-52
2021/09/10 00:49:17;;;;;;;0.57;0.57;;;;;;;19.78;100.00;99958.59;5031574;28;20454;-53
2021/09/10 00:51:45;;;;;;;0.50;0.40;;;;;;;19.95;100.00;99954.69;5033009;28;20463;-52
2021/09/10 00:54:12;;;;;;;2.20;1.13;;;;;;;19.68;100.00;99959.38;5035172;28;20501;-52
2021/09/10 00:56:39;;;;;;;0.77;0.50;;;;;;;19.68;100.00;99951.28;5034870;28;20523;-53
2021/09/10 00:59:06;;;;;;;0.40;0.20;;;;;;;19.75;100.00;99953.44;5035215;28;20460;-52
2021/09/10 01:01:33;;;;;;;0.60;0.37;;;;;;;19.80;100.00;99959.34;5035063;28;20983;-52
2021/09/10 01:04:02;;;;;;;0.90;0.90;;;;;;;19.80;100.00;99959.34;5034821;28;20484;-52
2021/09/10 01:06:30;;;;;;;0.50;0.50;;;;;;;19.69;100.00;99953.84;5021884;28;20460;-52
2021/09/10 01:08:59;;;;;;;0.40;0.20;;;;;;;19.89;100.00;99959.66;5034729;28;20448;-53
2021/09/10 01:11:26;;;;;;;0.40;0.20;;;;;;;19.85;100.00;99974.34;5034711;28;20452;-52
2021/09/10 01:13:55;;;;;;;0.40;0.20;;;;;;;19.82;100.00;99965.50;5017001;28;21043;-53
2021/09/10 01:16:22;;;;;;;0.40;0.30;;;;;;;19.88;100.00;99969.59;5034712;28;20491;-51
2021/09/10 01:18:50;;;;;;;2.10;0.97;;;;;;;19.79;100.00;99964.84;5017096;28;20853;-52
2021/09/10 01:21:17;;;;;;;0.40;0.20;;;;;;;19.78;100.00;99966.69;5034550;28;20477;-52
2021/09/10 01:23:44;;;;;;;2.70;1.33;;;;;;;19.85;100.00;99969.81;5034338;28;20472;-52
2021/09/10 01:26:11;;;;;;;0.40;0.30;;;;;;;19.94;100.00;99955.66;5016926;28;20586;-52
2021/09/10 01:28:38;;;;;;;0.40;0.30;;;;;;;19.67;100.00;99968.44;5034391;28;20478;-53
2021/09/10 01:31:04;;;;;;;0.60;0.50;;;;;;;19.70;100.00;99966.38;5034328;28;20502;-52
2021/09/10 01:33:31;;;;;;;0.40;0.20;;;;;;;19.80;100.00;99969.28;5034081;28;20502;-53
2021/09/10 01:36:00;;;;;;;3.30;3.03;;;;;;;19.37;100.00;99957.97;5034240;28;20487;-52
2021/09/10 01:38:27;;;;;;;0.40;0.20;;;;;;;19.52;100.00;99964.97;5034829;28;20451;-52
2021/09/10 01:40:55;;;;;;;0.40;0.30;;;;;;;19.56;100.00;99968.31;5034642;28;20509;-52
2021/09/10 01:43:22;;;;;;;0.60;0.60;;;;;;;19.43;100.00;99969.16;5033814;28;20472;-52
2021/09/10 01:45:49;;;;;;;0.40;0.30;;;;;;;19.51;100.00;99971.31;5034101;28;20479;-52
2021/09/10 01:48:16;;;;;;;0.77;0.77;;;;;;;19.63;100.00;99973.19;5033864;28;20447;-52
2021/09/10 01:50:43;;;;;;;0.50;0.30;;;;;;;19.60;100.00;99968.03;5033809;28;20892;-54
2021/09/10 01:53:10;;;;;;;0.47;0.30;;;;;;;19.46;100.00;99970.75;5033533;28;20479;-52
2021/09/10 01:55:37;;;;;;;0.50;0.50;;;;;;;19.52;100.00;99967.66;5033828;28;20523;-52
2021/09/10 01:58:04;;;;;;;1.47;1.37;;;;;;;19.48;100.00;99977.81;5033593;28;20890;-52
2021/09/10 02:00:31;;;;;;;0.60;0.40;;;;;;;19.51;100.00;99974.88;5033600;28;20498;-52
2021/09/10 02:02:58;;;;;;;0.40;0.20;;;;;;;19.61;100.00;99972.44;5032674;28;20487;-52
2021/09/10 02:05:25;;;;;;;0.83;0.83;;;;;;;19.57;100.00;99972.75;5033496;28;20530;-53
2021/09/10 02:07:52;;;;;;;0.50;0.40;;;;;;;19.49;100.00;99974.13;5033234;28;20514;-52
2021/09/10 02:10:20;;;;;;;0.40;0.20;;;;;;;19.51;100.00;99968.63;5033444;28;20475;-52
2021/09/10 02:12:47;;;;;;;0.50;0.50;;;;;;;19.49;100.00;99973.28;5033388;28;20471;-52
2021/09/10 02:15:14;;;;;;;0.40;0.27;;;;;;;19.55;100.00;99975.56;5033321;28;20481;-52
2021/09/10 02:17:41;;;;;;;0.50;0.50;;;;;;;19.37;100.00;99969.59;5033361;28;20452;-52
2021/09/10 02:20:09;;;;;;;0.40;0.30;;;;;;;19.55;100.00;99977.38;5033225;28;20487;-52
2021/09/10 02:22:36;;;;;;;0.40;0.30;;;;;;;19.53;100.00;99975.63;5025869;28;20598;-52
2021/09/10 02:25:03;;;;;;;0.50;0.50;;;;;;;19.61;100.00;99979.66;5015696;28;20953;-52
2021/09/10 02:27:30;;;;;;;0.40;0.30;;;;;;;19.50;100.00;99986.66;5020024;28;20930;-52
2021/09/10 02:29:57;;;;;;;0.77;0.77;;;;;;;19.38;100.00;99979.41;5033274;28;20872;-52
2021/09/10 02:32:24;;;;;;;0.50;0.30;;;;;;;19.45;100.00;99983.38;5019775;28;20537;-51
2021/09/10 02:34:51;;;;;;;3.17;2.97;;;;;;;19.33;100.00;99980.72;5032872;28;20960;-53
2021/09/10 02:37:18;;;;;;;0.67;0.67;;;;;;;19.37;100.00;99980.38;5032840;28;20541;-52
2021/09/10 02:39:46;;;;;;;0.40;0.30;;;;;;;19.32;100.00;99977.13;5032813;28;20505;-52
2021/09/10 02:42:14;;;;;;;1.53;1.00;;;;;;;18.96;100.00;99977.84;5015408;28;20522;-52
2021/09/10 02:44:41;;;;;;;2.73;0.63;;;;;;;18.98;100.00;99975.91;5015156;28;20452;-52
2021/09/10 02:47:08;;;;;;;0.40;0.20;;;;;;;18.81;100.00;99973.50;5032841;28;20953;-52
2021/09/10 02:49:35;;;;;;;0.40;0.20;;;;;;;18.93;100.00;99978.06;5032882;28;20447;-52
2021/09/10 02:52:03;;;;;;;1.03;1.03;;;;;;;18.88;100.00;99982.88;5033009;28;20890;-52
2021/09/10 02:54:30;;;;;;;0.50;0.40;;;;;;;18.92;100.00;99971.81;5032881;28;20443;-52
2021/09/10 02:56:57;;;;;;;0.50;0.50;;;;;;;19.03;100.00;99972.88;5032549;28;20549;-52
2021/09/10 02:59:24;;;;;;;0.50;0.50;;;;;;;19.04;100.00;99983.56;5032397;28;20797;-52
2021/09/10 03:01:51;;;;;;;1.70;1.63;;;;;;;18.93;100.00;99976.25;5032602;28;20893;-52
2021/09/10 03:04:18;;;;;;;1.60;1.50;;;;;;;18.94;100.00;99975.25;5032353;28;20978;-52
2021/09/10 03:06:45;;;;;;;0.63;0.63;;;;;;;19.04;100.00;99971.91;5032607;28;20501;-53
2021/09/10 03:09:12;;;;;;;2.07;1.97;;;;;;;19.01;100.00;99975.69;5032458;28;20448;-52
2021/09/10 03:11:39;;;;;;;0.40;0.30;;;;;;;18.86;100.00;99974.91;5033143;28;20521;-53
2021/09/10 03:14:06;;;;;;;0.40;0.37;;;;;;;18.89;100.00;99977.38;5032010;28;20471;-52
2021/09/10 03:16:33;;;;;;;0.40;0.20;;;;;;;18.74;100.00;99977.56;5032613;28;20526;-52
2021/09/10 03:19:00;;;;;;;4.47;3.43;;;;;;;18.89;100.00;99971.13;5032448;28;20455;-52
2021/09/10 03:21:27;;;;;;;1.30;1.30;;;;;;;18.63;100.00;99976.44;5032383;28;20452;-52
2021/09/10 03:23:55;;;;;;;0.50;0.50;;;;;;;18.78;100.00;99971.03;5031997;28;21037;-52
2021/09/10 03:26:22;;;;;;;5.30;2.23;;;;;;;18.91;100.00;99972.78;5032369;28;20829;-53
2021/09/10 03:28:49;;;;;;;0.40;0.30;;;;;;;18.99;100.00;99974.09;5032239;28;20455;-52
2021/09/10 03:31:16;;;;;;;0.40;0.30;;;;;;;18.90;100.00;99970.16;5032505;28;20486;-52
2021/09/10 03:33:43;;;;;;;0.40;0.30;;;;;;;18.85;100.00;99972.31;5032256;28;20467;-52
2021/09/10 03:36:10;;;;;;;0.53;0.53;;;;;;;18.93;100.00;99965.47;5032375;28;20511;-52
2021/09/10 03:38:37;;;;;;;0.40;0.30;;;;;;;18.70;100.00;99962.59;5032105;28;20451;-52
2021/09/10 03:41:04;;;;;;;0.50;0.50;;;;;;;18.89;100.00;99954.97;5032272;28;20945;-52
2021/09/10 03:43:31;;;;;;;0.60;0.53;;;;;;;18.96;100.00;99955.44;5032007;28;20529;-51
2021/09/10 03:45:58;;;;;;;0.50;0.30;;;;;;;18.94;100.00;99958.25;5032029;28;20971;-51
2021/09/10 03:48:25;;;;;;;0.47;0.40;;;;;;;19.05;100.00;99955.69;5032143;28;20586;-52
2021/09/10 03:50:52;;;;;;;0.40;0.20;;;;;;;19.12;100.00;99953.41;5032443;28;20447;-52
2021/09/10 03:53:19;;;;;;;0.50;0.40;;;;;;;19.35;100.00;99958.06;5031895;28;20529;-53
2021/09/10 03:55:46;;;;;;;0.50;0.30;;;;;;;19.28;100.00;99951.38;5031981;28;20495;-52
2021/09/10 03:58:13;;;;;;;0.50;0.40;;;;;;;19.14;100.00;99957.72;5031916;28;20521;-52
2021/09/10 04:00:40;;;;;;;0.50;0.50;;;;;;;19.06;100.00;99948.47;5031914;28;20547;-52
2021/09/10 04:03:07;;;;;;;0.60;0.60;;;;;;;19.23;100.00;99943.63;5031591;28;20920;-52
2021/09/10 04:05:34;;;;;;;0.40;0.30;;;;;;;19.21;100.00;99950.09;5014520;28;20447;-52
2021/09/10 04:08:01;;;;;;;0.43;0.30;;;;;;;19.38;100.00;99959.69;5031694;28;20455;-52
2021/09/10 04:10:28;;;;;;;0.50;0.30;;;;;;;19.43;100.00;99958.38;5031811;28;20497;-52
2021/09/10 04:12:55;;;;;;;0.40;0.20;;;;;;;19.59;100.00;99958.19;5032004;28;20502;-52
2021/09/10 04:15:22;;;;;;;0.50;0.50;;;;;;;19.63;100.00;99962.41;5031661;28;20451;-52
2021/09/10 04:17:49;;;;;;;1.60;1.50;;;;;;;19.67;100.00;99960.34;5031848;28;20497;-53
2021/09/10 04:20:16;;;;;;;0.90;0.50;;;;;;;19.58;100.00;99960.97;5031710;28;20506;-52
2021/09/10 04:22:43;;;;;;;0.40;0.30;;;;;;;19.59;100.00;99968.97;5024511;28;20542;-52
2021/09/10 04:25:11;;;;;;;0.40;0.20;;;;;;;19.61;100.00;99967.03;5033089;28;20521;-53
2021/09/10 04:27:38;;;;;;;0.47;0.40;;;;;;;19.52;100.00;99970.34;5018190;28;20514;-52
2021/09/10 04:30:06;;;;;;;0.40;0.20;;;;;;;19.50;100.00;99964.22;5035383;28;20509;-52
2021/09/10 04:32:33;;;;;;;0.40;0.30;;;;;;;19.54;100.00;99965.72;5035489;28;20502;-52
2021/09/10 04:35:01;;;;;;;0.50;0.40;;;;;;;19.54;100.00;99973.78;5035381;28;20509;-52
2021/09/10 04:37:28;;;;;;;0.50;0.50;;;;;;;19.52;100.00;99973.91;5035032;28;20526;-53
2021/09/10 04:39:55;;;;;;;0.50;0.37;;;;;;;19.57;100.00;99972.75;5035177;28;20505;-52
2021/09/10 04:42:22;;;;;;;19.37;0.93;;;;;;;19.61;100.00;99971.59;5035134;28;20514;-52
2021/09/10 04:44:49;;;;;;;0.80;0.80;;;;;;;19.60;100.00;99970.72;5035120;28;20525;-51
2021/09/10 04:47:16;;;;;;;0.50;0.40;;;;;;;19.55;100.00;99970.16;5035413;28;20447;-52
2021/09/10 04:49:43;;;;;;;0.40;0.20;;;;;;;19.32;100.00;99965.47;5035217;28;20459;-52
2021/09/10 04:52:10;;;;;;;0.40;0.20;;;;;;;19.33;100.00;99972.63;5033975;28;21000;-52
2021/09/10 04:54:37;;;;;;;0.60;0.50;;;;;;;19.12;100.00;99973.13;5035137;28;20455;-52
2021/09/10 04:57:04;;;;;;;0.50;0.40;;;;;;;19.29;100.00;99973.78;5034940;28;20495;-52
2021/09/10 04:59:31;;;;;;;0.70;0.70;;;;;;;19.30;100.00;99976.38;5034790;28;20521;-52
2021/09/10 05:04:33;;;;;;;0.40;0.23;;;;;;;19.52;100.00;99979.31;5033453;28;20471;-55
2021/09/10 05:07:02;;;;;;;0.90;0.90;;;;;;;19.62;100.00;99976.84;5023407;28;20483;-55
2021/09/10 05:09:29;;;;;;;1.43;0.73;;;;;;;19.62;100.00;99982.25;5033396;28;20825;-55
2021/09/10 05:11:56;;;;;;;0.60;0.50;;;;;;;19.61;100.00;99983.22;5034959;28;20935;-54
2021/09/10 05:14:23;;;;;;;0.50;0.40;;;;;;;19.66;100.00;99977.50;5021412;28;20506;-55
2021/09/10 05:16:50;;;;;;;0.50;0.40;;;;;;;19.68;100.00;99973.72;5034719;28;21085;-54
2021/09/10 05:19:16;;;;;;;0.40;0.30;;;;;;;19.58;100.00;99983.41;5028992;28;20971;-54
2021/09/10 05:21:43;;;;;;;0.60;0.53;;;;;;;19.53;100.00;99974.78;5020421;28;20483;-54
2021/09/10 05:24:10;;;;;;;0.40;0.20;;;;;;;19.57;100.00;99983.53;5028712;28;20473;-54
2021/09/10 05:26:37;;;;;;;0.40;0.20;;;;;;;19.61;100.00;99983.22;5027351;28;20493;-54
2021/09/10 05:29:04;;;;;;;0.50;0.37;;;;;;;19.58;100.00;99985.25;5034563;28;20505;-55
2021/09/10 05:31:31;;;;;;;0.40;0.20;;;;;;;19.63;100.00;99989.38;5022024;28;20942;-54
2021/09/10 05:33:58;;;;;;;0.50;0.40;;;;;;;19.69;100.00;99985.34;5033555;28;21004;-54
2021/09/10 05:36:25;;;;;;;0.50;0.40;;;;;;;19.71;100.00;99994.19;5020608;28;20466;-55
2021/09/10 05:38:52;;;;;;;1.10;0.80;;;;;;;19.81;100.00;99996.13;5034000;28;20481;-55
2021/09/10 05:41:19;;;;;;;0.40;0.30;;;;;;;19.83;100.00;99993.34;5034473;28;20484;-54
2021/09/10 05:43:46;;;;;;;0.97;0.97;;;;;;;19.87;100.00;99994.81;5020931;28;20490;-54
2021/09/10 05:46:13;;;;;;;0.60;0.40;;;;;;;19.79;100.00;99999.94;5034196;28;20452;-54
2021/09/10 05:48:40;;;;;;;0.40;0.20;;;;;;;19.78;100.00;100000.91;5020964;28;20472;-54
2021/09/10 05:51:08;;;;;;;0.40;0.30;;;;;;;19.85;100.00;99995.91;5022095;28;20799;-54
2021/09/10 05:53:35;;;;;;;1.07;0.97;;;;;;;19.78;100.00;100001.75;5027269;28;20500;-54
2021/09/10 05:56:02;;;;;;;0.50;0.40;;;;;;;19.91;100.00;100006.28;5027702;28;20506;-54
2021/09/10 05:58:29;;;;;;;0.60;0.50;;;;;;;20.00;100.00;100009.16;5034063;28;20476;-54
2021/09/10 06:00:56;;;;;;;0.40;0.20;;;;;;;20.10;100.00;100012.94;5047242;28;20447;-54
2021/09/10 06:03:23;;;;;;;0.40;0.20;;;;;;;20.17;100.00;100007.09;5025892;28;20551;-54
2021/09/10 06:05:50;;;;;;;0.40;0.30;;;;;;;20.26;100.00;100011.81;5028743;28;20448;-55
2021/09/10 06:08:17;;;;;;;0.40;0.20;;;;;;;20.27;100.00;100011.69;5034059;28;20448;-54
2021/09/10 06:10:46;;;;;;;0.60;0.53;;;;;;;20.38;100.00;100014.47;5033645;28;20454;-54
2021/09/10 06:13:17;;;;;;;0.40;0.20;;;;;;;20.40;100.00;100017.91;5024605;28;20842;-54
2021/09/10 06:15:44;;;;;;;0.40;0.30;;;;;;;20.43;100.00;100016.88;5029700;28;20456;-54
2021/09/10 06:18:11;;;;;;;0.40;0.30;;;;;;;20.44;100.00;100018.63;5033528;28;20909;-55
2021/09/10 06:20:38;;;;;;;0.50;0.30;;;;;;;20.46;100.00;100016.66;5020247;28;20522;-54
2021/09/10 06:23:05;;;;;;;0.50;0.50;;;;;;;20.56;100.00;100011.41;5033469;28;20472;-55
2021/09/10 06:25:32;;;;;;;4.50;1.50;;;;;;;20.69;100.00;100018.47;5020088;28;20529;-55
2021/09/10 06:27:59;;;;;;;0.47;0.27;;;;;;;20.83;100.00;100012.06;5033383;28;20447;-55
2021/09/10 06:30:26;;;;;;;3.90;0.87;;;;;;;20.82;100.00;100017.56;5029690;28;20488;-54
2021/09/10 06:32:53;;;;;;;0.50;0.50;;;;;;;20.88;100.00;100025.22;5023496;28;20503;-54
2021/09/10 06:35:19;;;;;;;0.83;0.83;;;;;;;20.89;100.00;100024.25;5033282;28;20475;-54
2021/09/10 06:37:46;;;;;;;1.90;1.80;;;;;;;21.04;100.00;100022.22;5022835;28;20520;-54
2021/09/10 06:40:13;;;;;;;1.37;1.37;;;;;;;21.26;100.00;100027.75;5030562;28;21009;-54
2021/09/10 06:42:42;;;;;;;0.97;0.97;;;;;;;21.18;100.00;100025.59;5032907;28;20472;-54
2021/09/10 06:45:11;;;;;;;0.40;0.20;;;;;;;21.27;100.00;100026.78;5019403;28;20502;-54
2021/09/10 06:47:38;;;;;;;0.40;0.30;;;;;;;21.32;100.00;100029.09;5032501;28;20447;-55
2021/09/10 06:50:09;;;;;;;0.40;0.30;;;;;;;21.25;100.00;100037.72;5028496;28;20465;-55
2021/09/10 06:52:42;;;;;;;0.70;0.70;;;;;;;21.32;100.00;100027.25;5026979;28;20492;-55
2021/09/10 06:55:09;;;;;;;1.27;1.17;;;;;;;21.54;100.00;100032.72;5019411;28;20861;-55
2021/09/10 06:57:36;;;;;;;3.43;0.63;;;;;;;21.51;99.21;100032.09;5033004;28;20542;-54
2021/09/10 07:00:05;;;;;;;0.50;0.40;;;;;;;21.88;97.57;100030.91;5040022;28;20879;-54
2021/09/10 07:02:32;;;;;;;0.40;0.20;;;;;;;21.89;96.88;100029.94;5036770;28;20991;-54
2021/09/10 07:05:01;;;;;;;0.50;0.30;;;;;;;21.94;96.89;100026.88;5020770;28;20498;-55
2021/09/10 07:07:28;;;;;;;4.87;3.03;;;;;;;21.76;96.51;100041.84;5032291;28;20968;-54
2021/09/10 07:09:55;;;;;;;0.40;0.20;;;;;;;22.09;96.24;100047.34;5032546;28;20451;-55
2021/09/10 07:12:22;;;;;;;0.73;0.57;;;;;;;21.97;95.83;100039.31;5019375;28;20472;-55
2021/09/10 07:14:48;;;;;;;0.70;0.70;;;;;;;22.07;95.67;100035.78;5032747;28;20430;-54
2021/09/10 07:17:15;;;;;;;3.60;0.50;;;;;;;22.20;96.23;100035.63;5030203;28;20530;-55
2021/09/10 07:19:42;;;;;;;0.40;0.20;;;;;;;22.04;95.44;100043.22;5021349;28;20480;-54
2021/09/10 07:22:12;;;;;;;0.50;0.30;;;;;;;22.09;96.25;100038.34;5032116;28;20454;-55
2021/09/10 07:24:39;;;;;;;0.60;0.53;;;;;;;22.13;97.04;100037.13;5023457;28;20485;-55
2021/09/10 07:27:06;;;;;;;0.50;0.40;;;;;;;22.38;93.96;100033.28;5028133;28;20574;-55
2021/09/10 07:29:33;;;;;;;0.67;0.67;;;;;;;22.53;93.90;100037.44;5032342;28;20506;-54
2021/09/10 07:32:00;;;;;;;0.50;0.33;;;;;;;22.46;93.33;100042.47;5018915;28;20975;-55
2021/09/10 07:34:27;;;;;;;0.50;0.50;;;;;;;22.40;94.45;100055.69;5032271;28;20462;-55
2021/09/10 07:36:54;;;;;;;0.70;0.70;;;;;;;22.42;94.99;100053.72;5032048;28;20573;-55
2021/09/10 07:39:21;;;;;;;0.40;0.30;;;;;;;22.75;92.96;100061.78;5022635;28;20519;-55
2021/09/10 07:41:48;;;;;;;0.40;0.30;;;;;;;22.43;93.75;100066.25;5029361;28;20537;-55
2021/09/10 07:44:16;;;;;;;0.73;0.73;;;;;;;22.40;94.73;100066.53;5032117;28;21000;-55
2021/09/10 07:46:45;;;;;;;0.50;0.40;;;;;;;22.46;93.92;100066.88;5018933;28;20469;-55
2021/09/10 07:49:12;;;;;;;0.50;0.30;;;;;;;22.77;93.50;100067.09;5032056;28;20872;-54
2021/09/10 07:51:39;;;;;;;0.40;0.30;;;;;;;22.58;93.00;100065.00;5031918;28;20434;-55
2021/09/10 07:54:07;;;;;;;0.40;0.20;;;;;;;22.76;92.34;100068.94;5020211;28;20500;-55
2021/09/10 07:56:37;;;;;;;0.50;0.37;;;;;;;22.98;91.77;100072.56;5018009;28;20518;-55
2021/09/10 07:59:04;;;;;;;0.60;0.53;;;;;;;22.85;91.53;100072.75;5031964;28;20794;-55
2021/09/10 08:01:31;;;;;;;0.40;0.20;;;;;;;22.94;92.19;100071.13;5029370;28;20858;-55
2021/09/10 08:03:58;;;;;;;1.10;1.10;;;;;;;22.66;91.79;100072.53;5028940;28;20542;-55
2021/09/10 08:06:25;;;;;;;0.40;0.30;;;;;;;22.36;93.43;100070.47;5029700;28;20880;-55
2021/09/10 08:08:55;;;;;;;0.73;0.67;;;;;;;22.51;93.73;100081.91;5029247;28;20501;-55
2021/09/10 08:11:22;;;;;;;0.50;0.30;;;;;;;22.50;93.29;100083.75;5023031;28;20448;-54
2021/09/10 08:13:49;;;;;;;0.53;0.53;;;;;;;22.51;92.98;100090.91;5035512;28;20529;-54
2021/09/10 08:16:16;;;;;;;1.13;1.13;;;;;;;22.45;93.26;100089.53;5028432;28;20448;-55
2021/09/10 08:18:43;;;;;;;0.40;0.30;;;;;;;22.49;93.34;100092.88;5029801;28;20494;-55
2021/09/10 08:21:29;;;;;;;0.53;0.53;;;;;;;22.54;92.34;100098.78;5035549;28;20530;-55
2021/09/10 08:23:56;;;;;;;0.40;0.20;;;;;;;22.51;92.68;100090.91;5031976;28;21063;-54
2021/09/10 08:26:23;;;;;;;0.77;0.77;;;;;;;22.66;92.08;100088.78;5026072;28;20475;-55
2021/09/10 08:28:50;;;;;;;0.40;0.30;;;;;;;22.63;91.50;100089.91;5035408;28;20479;-55
2021/09/10 08:31:17;;;;;;;0.40;0.20;;;;;;;22.52;93.01;100097.19;5024803;28;20518;-55
2021/09/10 08:33:44;;;;;;;0.50;0.40;;;;;;;22.49;92.83;100092.00;5033209;28;20534;-55
2021/09/10 08:36:11;;;;;;;1.70;1.70;;;;;;;22.38;93.43;100101.00;5035507;28;20945;-55
2021/09/10 08:38:37;;;;;;;0.50;0.40;;;;;;;22.26;92.97;100100.13;5021691;28;20491;-55
2021/09/10 08:41:10;;;;;;;1.80;1.23;;;;;;;22.24;94.40;100099.41;5035410;28;20485;-55
2021/09/10 08:43:45;;;;;;;2.00;2.00;;;;;;;22.38;93.54;100109.13;5030177;28;20870;-55
2021/09/10 08:46:12;;;;;;;0.47;0.37;;;;;;;22.43;92.58;100109.59;5028552;28;20443;-55
2021/09/10 08:48:42;;;;;;;0.57;0.57;;;;;;;22.17;93.65;100120.69;5035309;28;20451;-55
2021/09/10 08:51:08;;;;;;;0.40;0.30;;;;;;;22.23;93.53;100123.91;5023698;28;20502;-54
2021/09/10 08:53:35;;;;;;;0.40;0.20;;;;;;;22.41;93.55;100119.72;5021879;28;20514;-55
2021/09/10 08:56:02;;;;;;;0.40;0.30;;;;;;;22.62;92.32;100120.69;5034960;28;20452;-55
2021/09/10 08:58:29;;;;;;;0.40;0.30;;;;;;;22.84;90.91;100121.66;5028171;28;20570;-55
2021/09/10 09:00:59;;;;;;;0.57;0.40;;;;;;;22.67;91.93;100126.59;5044634;28;20476;-55
2021/09/10 09:03:28;;;;;;;0.50;0.40;;;;;;;22.76;92.06;100123.13;5026356;28;20455;-55
2021/09/10 09:05:55;;;;;;;0.50;0.40;;;;;;;22.90;91.41;100119.31;5030633;28;20542;-55
2021/09/10 09:08:23;;;;;;;0.40;0.20;;;;;;;22.83;91.81;100122.66;5025636;28;20472;-55
2021/09/10 09:10:56;;;;;;;0.50;0.40;;;;;;;22.96;92.35;100118.81;5030597;28;20455;-54
2021/09/10 09:13:31;;;;;;;0.40;0.20;;;;;;;23.09;92.41;100117.78;5035208;28;20526;-55
2021/09/10 09:16:26;;;;;;;0.50;0.30;;;;;;;22.84;93.58;100122.53;5021520;28;20840;-55
2021/09/10 09:19:02;;;;;;;0.40;0.30;;;;;;;22.93;96.68;100113.66;5034643;28;20491;-55
2021/09/10 09:21:33;;;;;;;0.47;0.30;;;;;;;22.88;97.52;100112.28;5029139;28;20836;-55
2021/09/10 09:24:20;;;;;;;0.40;0.20;;;;;;;22.58;96.18;100116.50;5030617;28;20459;-55
2021/09/10 09:26:50;;;;;;;0.50;0.30;;;;;;;22.67;95.75;100114.88;5028187;28;20475;-55
2021/09/10 09:29:20;;;;;;;7.00;0.63;;;;;;;23.09;94.10;100117.78;5025929;28;20415;-55
2021/09/10 09:31:56;;;;;;;1.47;1.47;;;;;;;22.75;94.83;100118.72;5013610;28;20487;-55
2021/09/10 09:34:46;;;;;;;0.40;0.30;;;;;;;22.67;99.69;100123.88;5023978;28;20602;-55
2021/09/10 09:37:17;;;;;;;0.40;0.30;;;;;;;22.74;100.00;100121.50;5034467;28;20459;-55
2021/09/10 09:40:02;;;;;;;1.60;1.50;;;;;;;22.57;97.86;100122.91;5021171;28;20527;-55
2021/09/10 09:42:32;;;;;;;0.40;0.30;;;;;;;22.67;96.50;100115.75;5023600;28;20470;-55
2021/09/10 09:45:11;;;;;;;0.50;0.50;;;;;;;22.71;95.24;100119.91;5020731;28;20430;-55
2021/09/10 09:47:39;;;;;;;0.40;0.30;;;;;;;22.54;95.97;100115.03;5034170;28;20443;-55
2021/09/10 09:50:08;;;;;;;1.63;0.60;;;;;;;22.42;95.41;100118.72;5029259;28;20439;-55
2021/09/10 09:52:35;;;;;;;0.50;0.50;;;;;;;22.47;95.84;100124.63;5028167;28;20880;-54
2021/09/10 09:55:08;;;;;;;0.60;0.60;;;;;;;22.49;95.66;100128.09;5020926;28;20452;-55
2021/09/10 09:57:35;;;;;;;15.33;1.40;;;;;;;22.50;96.51;100118.97;5034040;28;20516;-55
2021/09/10 10:00:07;;;;;;;0.40;0.20;;;;;;;22.56;95.51;100118.47;5041027;28;20447;-55
2021/09/10 10:02:34;;;;;;;0.40;0.30;;;;;;;22.30;97.03;100108.88;5037799;28;20533;-55
2021/09/10 10:05:03;;;;;;;0.40;0.20;;;;;;;22.55;97.15;100122.16;5021933;28;20459;-55
2021/09/10 10:07:42;;;;;;;0.40;0.20;;;;;;;22.51;96.24;100120.69;5033119;28;20451;-55
2021/09/10 10:10:12;;;;;;;0.50;0.40;;;;;;;22.48;95.67;100115.53;5033700;28;20933;-55
2021/09/10 10:12:41;;;;;;;0.70;0.40;;;;;;;22.30;97.22;100119.69;5020644;28;20467;-55
2021/09/10 10:15:23;;;;;;;0.40;0.20;;;;;;;22.39;96.97;100118.97;5033557;28;20448;-55
2021/09/10 10:17:51;;;;;;;0.63;0.63;;;;;;;22.25;97.30;100120.06;5027566;28;20916;-54
2021/09/10 10:20:44;;;;;;;2.93;1.90;;;;;;;22.18;97.15;100118.81;5026534;28;20510;-55
2021/09/10 10:23:41;;;;;;;0.50;0.40;;;;;;;22.17;97.63;100123.38;5023736;28;20503;-55
2021/09/10 10:26:09;;;;;;;0.40;0.23;;;;;;;22.24;97.89;100129.19;5021200;28;20497;-55
2021/09/10 10:28:44;;;;;;;0.50;0.40;;;;;;;22.17;97.99;100120.69;5020155;28;20483;-55
2021/09/10 10:31:12;;;;;;;0.50;0.30;;;;;;;22.06;98.82;100123.38;5033440;28;20453;-55
2021/09/10 10:34:03;;;;;;;0.40;0.30;;;;;;;22.04;100.00;100119.03;5031042;28;20484;-55
2021/09/10 10:36:34;;;;;;;1.23;1.07;;;;;;;21.64;100.00;100127.53;5025458;28;20444;-55
2021/09/10 10:39:14;;;;;;;1.03;1.03;;;;;;;21.74;100.00;100122.28;5032791;28;20495;-55
2021/09/10 10:41:53;;;;;;;0.40;0.20;;;;;;;21.60;100.00;100123.38;5019946;28;20431;-55
2021/09/10 10:44:29;;;;;;;0.50;0.40;;;;;;;21.56;100.00;100111.06;5032946;28;20438;-55
2021/09/10 10:47:15;;;;;;;0.40;0.30;;;;;;;21.53;100.00;100111.31;5028580;28;20975;-55
2021/09/10 10:49:47;;;;;;;0.50;0.30;;;;;;;21.49;100.00;100107.94;5027027;28;20423;-55
2021/09/10 10:52:38;;;;;;;0.50;0.40;;;;;;;21.58;100.00;100111.81;5033044;28;20538;-55
2021/09/10 10:55:34;;;;;;;0.40;0.20;;;;;;;21.55;100.00;100112.91;5019855;28;20448;-55
2021/09/10 10:58:27;;;;;;;2.33;2.13;;;;;;;21.52;100.00;100105.03;5032708;28;21042;-55
2021/09/10 11:01:03;;;;;;;0.40;0.20;;;;;;;21.29;100.00;100095.97;5046219;28;20447;-55
2021/09/10 11:03:34;;;;;;;0.40;0.20;;;;;;;21.53;100.00;100105.91;5033693;28;20904;-52
2021/09/10 11:06:35;;;;;;;0.40;0.30;;;;;;;21.49;100.00;100104.38;5016675;28;20456;-53
2021/09/10 11:09:07;;;;;;;0.70;0.63;;;;;;;21.32;100.00;100102.97;5027511;28;20517;-52
2021/09/10 11:11:34;;;;;;;0.40;0.20;;;;;;;21.47;100.00;100098.22;5032723;28;20796;-52
2021/09/10 11:14:06;;;;;;;0.40;0.30;;;;;;;21.50;100.00;100100.69;5019333;28;20465;-52
2021/09/10 11:16:33;;;;;;;0.83;0.83;;;;;;;21.53;100.00;100104.06;5031752;28;20448;-53
2021/09/10 11:19:00;;;;;;;0.40;0.30;;;;;;;21.65;100.00;100093.25;5028588;28;21053;-52
2021/09/10 11:21:29;;;;;;;1.53;1.43;;;;;;;21.70;100.00;100093.75;5021684;28;20483;-52
2021/09/10 11:24:06;;;;;;;1.27;1.17;;;;;;;21.88;100.00;100090.47;5031459;28;20912;-52
2021/09/10 11:26:34;;;;;;;0.50;0.40;;;;;;;21.85;100.00;100082.59;5020054;28;20448;-52
2021/09/10 11:29:08;;;;;;;1.03;0.97;;;;;;;22.11;100.00;100088.69;5030724;28;20510;-52
2021/09/10 11:31:35;;;;;;;0.40;0.30;;;;;;;22.17;100.00;100082.75;5018357;28;20451;-52
2021/09/10 11:34:02;;;;;;;0.43;0.30;;;;;;;22.35;100.00;100085.00;5019075;28;20538;-52